sensor_id;sensor_type;location;lat;lon;timestamp;P1;durP1;ratioP1;P2;durP2;ratioP2
21941;SDS011;11135;54.192;15.670;2023-08-01T00:00:05;8.80;;;3.15;;
21941;SDS011;11135;54.192;15.670;2023-08-01T00:03:31;4.53;;;3.63;;
21941;SDS011;11135;54.192;15.670;2023-08-01T00:06:39;7.03;;;3.67;;
21941;SDS011;11135;54.192;15.670;2023-08-01T00:09:45;6.25;;;3.17;;
21941;SDS011;11135;54.192;15.670;2023-08-01T00:12:51;5.03;;;3.20;;
21941;SDS011;11135;54.192;15.670;2023-08-01T00:15:56;6.28;;;3.30;;
21941;SDS011;11135;54.192;15.670;2023-08-01T00:19:09;5.88;;;3.25;;
21941;SDS011;11135;54.192;15.670;2023-08-01T00:22:17;6.07;;;3.50;;
21941;SDS011;11135;54.192;15.670;2023-08-01T00:25:22;7.00;;;3.38;;
21941;SDS011;11135;54.192;15.670;2023-08-01T00:28:28;5.30;;;3.38;;
21941;SDS011;11135;54.192;15.670;2023-08-01T00:31:34;7.88;;;3.40;;
21941;SDS011;11135;54.192;15.670;2023-08-01T00:34:39;5.28;;;2.72;;
21941;SDS011;11135;54.192;15.670;2023-08-01T00:37:47;5.68;;;3.60;;
21941;SDS011;11135;54.192;15.670;2023-08-01T00:40:54;5.13;;;3.25;;
21941;SDS011;11135;54.192;15.670;2023-08-01T00:43:59;5.70;;;2.55;;
21941;SDS011;11135;54.192;15.670;2023-08-01T00:47:05;7.78;;;3.40;;
21941;SDS011;11135;54.192;15.670;2023-08-01T00:50:10;6.93;;;3.70;;
21941;SDS011;11135;54.192;15.670;2023-08-01T00:53:18;6.03;;;3.58;;
21941;SDS011;11135;54.192;15.670;2023-08-01T00:56:24;6.57;;;3.38;;
21941;SDS011;11135;54.192;15.670;2023-08-01T00:59:29;6.88;;;3.28;;
21941;SDS011;11135;54.192;15.670;2023-08-01T01:02:35;7.07;;;3.20;;
21941;SDS011;11135;54.192;15.670;2023-08-01T01:05:45;5.43;;;3.33;;
21941;SDS011;11135;54.192;15.670;2023-08-01T01:08:57;4.40;;;2.75;;
21941;SDS011;11135;54.192;15.670;2023-08-01T01:12:02;5.85;;;3.50;;
21941;SDS011;11135;54.192;15.670;2023-08-01T01:15:11;5.97;;;3.13;;
21941;SDS011;11135;54.192;15.670;2023-08-01T01:18:16;5.95;;;3.20;;
21941;SDS011;11135;54.192;15.670;2023-08-01T01:21:24;4.85;;;3.03;;
21941;SDS011;11135;54.192;15.670;2023-08-01T01:24:58;5.72;;;3.42;;
21941;SDS011;11135;54.192;15.670;2023-08-01T01:28:05;6.28;;;3.20;;
21941;SDS011;11135;54.192;15.670;2023-08-01T01:31:10;7.10;;;3.40;;
21941;SDS011;11135;54.192;15.670;2023-08-01T01:34:16;8.00;;;3.25;;
21941;SDS011;11135;54.192;15.670;2023-08-01T01:37:24;4.57;;;3.05;;
21941;SDS011;11135;54.192;15.670;2023-08-01T01:40:35;6.25;;;2.85;;
21941;SDS011;11135;54.192;15.670;2023-08-01T01:43:43;7.07;;;3.17;;
21941;SDS011;11135;54.192;15.670;2023-08-01T01:46:49;5.70;;;3.53;;
21941;SDS011;11135;54.192;15.670;2023-08-01T01:49:54;5.32;;;3.15;;
21941;SDS011;11135;54.192;15.670;2023-08-01T01:53:02;5.78;;;3.13;;
21941;SDS011;11135;54.192;15.670;2023-08-01T01:56:07;6.22;;;3.30;;
21941;SDS011;11135;54.192;15.670;2023-08-01T01:59:13;5.95;;;3.30;;
21941;SDS011;11135;54.192;15.670;2023-08-01T02:02:18;5.05;;;3.17;;
21941;SDS011;11135;54.192;15.670;2023-08-01T02:05:26;5.60;;;3.20;;
21941;SDS011;11135;54.192;15.670;2023-08-01T02:08:33;5.35;;;3.53;;
21941;SDS011;11135;54.192;15.670;2023-08-01T02:11:39;5.32;;;3.55;;
21941;SDS011;11135;54.192;15.670;2023-08-01T02:14:44;8.48;;;4.00;;
21941;SDS011;11135;54.192;15.670;2023-08-01T02:17:50;8.18;;;3.63;;
21941;SDS011;11135;54.192;15.670;2023-08-01T02:20:56;5.78;;;3.58;;
21941;SDS011;11135;54.192;15.670;2023-08-01T02:24:04;7.07;;;3.80;;
21941;SDS011;11135;54.192;15.670;2023-08-01T02:27:09;6.65;;;3.65;;
21941;SDS011;11135;54.192;15.670;2023-08-01T02:30:15;6.20;;;3.55;;
21941;SDS011;11135;54.192;15.670;2023-08-01T02:33:22;6.35;;;3.90;;
21941;SDS011;11135;54.192;15.670;2023-08-01T02:36:27;6.90;;;3.65;;
21941;SDS011;11135;54.192;15.670;2023-08-01T02:39:35;7.32;;;3.75;;
21941;SDS011;11135;54.192;15.670;2023-08-01T02:42:41;6.28;;;3.55;;
21941;SDS011;11135;54.192;15.670;2023-08-01T02:45:46;10.82;;;4.40;;
21941;SDS011;11135;54.192;15.670;2023-08-01T02:48:51;6.05;;;3.90;;
21941;SDS011;11135;54.192;15.670;2023-08-01T02:51:56;8.20;;;5.10;;
21941;SDS011;11135;54.192;15.670;2023-08-01T02:55:05;7.57;;;4.50;;
21941;SDS011;11135;54.192;15.670;2023-08-01T02:58:10;8.00;;;4.78;;
21941;SDS011;11135;54.192;15.670;2023-08-01T03:01:16;8.18;;;4.38;;
21941;SDS011;11135;54.192;15.670;2023-08-01T03:04:21;8.20;;;4.85;;
21941;SDS011;11135;54.192;15.670;2023-08-01T03:07:46;7.47;;;4.57;;
21941;SDS011;11135;54.192;15.670;2023-08-01T03:10:56;9.45;;;4.93;;
21941;SDS011;11135;54.192;15.670;2023-08-01T03:14:02;10.85;;;5.13;;
21941;SDS011;11135;54.192;15.670;2023-08-01T03:17:08;9.35;;;4.88;;
21941;SDS011;11135;54.192;15.670;2023-08-01T03:20:14;9.55;;;4.88;;
21941;SDS011;11135;54.192;15.670;2023-08-01T03:23:19;11.20;;;5.60;;
21941;SDS011;11135;54.192;15.670;2023-08-01T03:26:27;9.73;;;4.30;;
21941;SDS011;11135;54.192;15.670;2023-08-01T03:29:35;9.65;;;4.63;;
21941;SDS011;11135;54.192;15.670;2023-08-01T03:32:41;11.38;;;4.88;;
21941;SDS011;11135;54.192;15.670;2023-08-01T03:35:47;7.55;;;4.53;;
21941;SDS011;11135;54.192;15.670;2023-08-01T03:38:53;8.15;;;4.68;;
21941;SDS011;11135;54.192;15.670;2023-08-01T03:42:04;5.55;;;3.60;;
21941;SDS011;11135;54.192;15.670;2023-08-01T03:45:10;6.22;;;4.13;;
21941;SDS011;11135;54.192;15.670;2023-08-01T03:48:15;6.63;;;3.97;;
21941;SDS011;11135;54.192;15.670;2023-08-01T03:51:21;9.55;;;6.32;;
21941;SDS011;11135;54.192;15.670;2023-08-01T03:54:30;8.98;;;5.13;;
21941;SDS011;11135;54.192;15.670;2023-08-01T03:57:39;8.95;;;5.15;;
21941;SDS011;11135;54.192;15.670;2023-08-01T04:00:44;10.80;;;5.63;;
21941;SDS011;11135;54.192;15.670;2023-08-01T04:03:53;9.55;;;5.65;;
21941;SDS011;11135;54.192;15.670;2023-08-01T04:06:58;7.07;;;4.93;;
21941;SDS011;11135;54.192;15.670;2023-08-01T04:10:04;6.88;;;4.15;;
21941;SDS011;11135;54.192;15.670;2023-08-01T04:13:12;7.07;;;4.72;;
21941;SDS011;11135;54.192;15.670;2023-08-01T04:16:20;9.10;;;4.80;;
21941;SDS011;11135;54.192;15.670;2023-08-01T04:19:25;12.90;;;4.68;;
21941;SDS011;11135;54.192;15.670;2023-08-01T04:22:30;10.15;;;4.82;;
21941;SDS011;11135;54.192;15.670;2023-08-01T04:25:36;6.88;;;4.53;;
21941;SDS011;11135;54.192;15.670;2023-08-01T04:28:46;6.30;;;5.15;;
21941;SDS011;11135;54.192;15.670;2023-08-01T04:31:52;9.45;;;5.55;;
21941;SDS011;11135;54.192;15.670;2023-08-01T04:34:57;9.55;;;4.85;;
21941;SDS011;11135;54.192;15.670;2023-08-01T04:38:03;7.15;;;4.97;;
21941;SDS011;11135;54.192;15.670;2023-08-01T04:41:09;9.07;;;4.25;;
21941;SDS011;11135;54.192;15.670;2023-08-01T04:44:16;7.97;;;4.60;;
21941;SDS011;11135;54.192;15.670;2023-08-01T04:47:23;9.48;;;4.85;;
21941;SDS011;11135;54.192;15.670;2023-08-01T04:50:30;9.10;;;4.88;;
21941;SDS011;11135;54.192;15.670;2023-08-01T04:53:36;8.90;;;4.60;;
21941;SDS011;11135;54.192;15.670;2023-08-01T04:56:42;9.25;;;4.85;;
21941;SDS011;11135;54.192;15.670;2023-08-01T04:59:53;10.07;;;5.22;;
21941;SDS011;11135;54.192;15.670;2023-08-01T05:03:00;11.18;;;5.43;;
21941;SDS011;11135;54.192;15.670;2023-08-01T05:06:06;11.27;;;6.00;;
21941;SDS011;11135;54.192;15.670;2023-08-01T05:09:11;8.57;;;5.00;;
21941;SDS011;11135;54.192;15.670;2023-08-01T05:12:17;7.47;;;5.28;;
21941;SDS011;11135;54.192;15.670;2023-08-01T05:15:26;7.38;;;4.85;;
21941;SDS011;11135;54.192;15.670;2023-08-01T05:18:33;9.02;;;5.55;;
21941;SDS011;11135;54.192;15.670;2023-08-01T05:21:38;11.18;;;5.75;;
21941;SDS011;11135;54.192;15.670;2023-08-01T05:24:46;9.48;;;4.95;;
21941;SDS011;11135;54.192;15.670;2023-08-01T05:27:51;10.98;;;5.40;;
21941;SDS011;11135;54.192;15.670;2023-08-01T05:30:59;10.82;;;5.63;;
21941;SDS011;11135;54.192;15.670;2023-08-01T05:34:04;6.70;;;3.92;;
21941;SDS011;11135;54.192;15.670;2023-08-01T05:37:10;8.52;;;5.15;;
21941;SDS011;11135;54.192;15.670;2023-08-01T05:40:15;8.55;;;4.90;;
21941;SDS011;11135;54.192;15.670;2023-08-01T05:43:20;7.22;;;4.55;;
21941;SDS011;11135;54.192;15.670;2023-08-01T05:46:28;7.07;;;5.35;;
21941;SDS011;11135;54.192;15.670;2023-08-01T05:49:34;6.93;;;4.10;;
21941;SDS011;11135;54.192;15.670;2023-08-01T05:52:39;7.38;;;4.60;;
21941;SDS011;11135;54.192;15.670;2023-08-01T05:55:45;8.63;;;4.28;;
21941;SDS011;11135;54.192;15.670;2023-08-01T05:58:50;7.57;;;4.32;;
21941;SDS011;11135;54.192;15.670;2023-08-01T06:02:03;6.40;;;3.90;;
21941;SDS011;11135;54.192;15.670;2023-08-01T06:05:08;6.97;;;4.03;;
21941;SDS011;11135;54.192;15.670;2023-08-01T06:08:15;7.85;;;4.18;;
21941;SDS011;11135;54.192;15.670;2023-08-01T06:11:22;8.68;;;4.57;;
21941;SDS011;11135;54.192;15.670;2023-08-01T06:14:28;5.82;;;3.60;;
21941;SDS011;11135;54.192;15.670;2023-08-01T06:17:38;5.18;;;3.65;;
21941;SDS011;11135;54.192;15.670;2023-08-01T06:20:44;7.97;;;3.60;;
21941;SDS011;11135;54.192;15.670;2023-08-01T06:23:51;7.10;;;4.50;;
21941;SDS011;11135;54.192;15.670;2023-08-01T06:26:57;7.28;;;4.13;;
21941;SDS011;11135;54.192;15.670;2023-08-01T06:30:03;5.30;;;3.38;;
21941;SDS011;11135;54.192;15.670;2023-08-01T06:33:12;7.95;;;3.90;;
21941;SDS011;11135;54.192;15.670;2023-08-01T06:36:19;7.10;;;4.57;;
21941;SDS011;11135;54.192;15.670;2023-08-01T06:39:24;5.93;;;4.43;;
21941;SDS011;11135;54.192;15.670;2023-08-01T06:42:30;5.65;;;3.88;;
21941;SDS011;11135;54.192;15.670;2023-08-01T06:45:35;5.88;;;3.50;;
21941;SDS011;11135;54.192;15.670;2023-08-01T06:48:45;5.82;;;3.80;;
21941;SDS011;11135;54.192;15.670;2023-08-01T06:51:51;5.47;;;3.55;;
21941;SDS011;11135;54.192;15.670;2023-08-01T06:54:56;5.10;;;3.30;;
21941;SDS011;11135;54.192;15.670;2023-08-01T06:58:01;5.90;;;4.03;;
21941;SDS011;11135;54.192;15.670;2023-08-01T07:01:07;7.35;;;3.80;;
21941;SDS011;11135;54.192;15.670;2023-08-01T07:04:18;6.40;;;3.60;;
21941;SDS011;11135;54.192;15.670;2023-08-01T07:07:25;5.07;;;3.28;;
21941;SDS011;11135;54.192;15.670;2023-08-01T07:10:34;4.47;;;3.28;;
21941;SDS011;11135;54.192;15.670;2023-08-01T07:13:39;3.40;;;2.45;;
21941;SDS011;11135;54.192;15.670;2023-08-01T07:16:44;4.18;;;2.42;;
21941;SDS011;11135;54.192;15.670;2023-08-01T07:19:52;4.72;;;2.97;;
21941;SDS011;11135;54.192;15.670;2023-08-01T07:23:00;3.80;;;2.70;;
21941;SDS011;11135;54.192;15.670;2023-08-01T07:26:07;3.88;;;2.30;;
21941;SDS011;11135;54.192;15.670;2023-08-01T07:29:12;3.42;;;2.72;;
21941;SDS011;11135;54.192;15.670;2023-08-01T07:32:17;3.60;;;2.63;;
21941;SDS011;11135;54.192;15.670;2023-08-01T07:35:28;3.75;;;2.20;;
21941;SDS011;11135;54.192;15.670;2023-08-01T07:38:33;3.78;;;3.17;;
21941;SDS011;11135;54.192;15.670;2023-08-01T07:41:38;3.70;;;2.25;;
21941;SDS011;11135;54.192;15.670;2023-08-01T07:44:44;3.70;;;2.30;;
21941;SDS011;11135;54.192;15.670;2023-08-01T07:47:50;3.30;;;2.40;;
21941;SDS011;11135;54.192;15.670;2023-08-01T07:50:58;5.78;;;2.60;;
21941;SDS011;11135;54.192;15.670;2023-08-01T07:54:03;3.33;;;2.50;;
21941;SDS011;11135;54.192;15.670;2023-08-01T07:57:09;3.35;;;2.45;;
21941;SDS011;11135;54.192;15.670;2023-08-01T08:00:15;4.38;;;2.95;;
21941;SDS011;11135;54.192;15.670;2023-08-01T08:03:21;3.40;;;2.72;;
21941;SDS011;11135;54.192;15.670;2023-08-01T08:06:29;4.63;;;2.78;;
21941;SDS011;11135;54.192;15.670;2023-08-01T08:09:34;5.65;;;3.22;;
21941;SDS011;11135;54.192;15.670;2023-08-01T08:12:43;3.58;;;2.60;;
21941;SDS011;11135;54.192;15.670;2023-08-01T08:15:48;4.70;;;2.83;;
21941;SDS011;11135;54.192;15.670;2023-08-01T08:18:54;4.60;;;2.90;;
21941;SDS011;11135;54.192;15.670;2023-08-01T08:22:06;4.18;;;2.90;;
21941;SDS011;11135;54.192;15.670;2023-08-01T08:25:13;4.97;;;3.60;;
21941;SDS011;11135;54.192;15.670;2023-08-01T08:28:26;5.20;;;2.83;;
21941;SDS011;11135;54.192;15.670;2023-08-01T08:31:33;4.25;;;3.05;;
21941;SDS011;11135;54.192;15.670;2023-08-01T08:34:39;4.05;;;3.33;;
21941;SDS011;11135;54.192;15.670;2023-08-01T08:37:50;3.60;;;3.13;;
21941;SDS011;11135;54.192;15.670;2023-08-01T08:40:59;5.28;;;2.88;;
21941;SDS011;11135;54.192;15.670;2023-08-01T08:44:09;3.85;;;3.00;;
21941;SDS011;11135;54.192;15.670;2023-08-01T08:47:15;4.53;;;2.80;;
21941;SDS011;11135;54.192;15.670;2023-08-01T08:50:24;3.60;;;3.00;;
21941;SDS011;11135;54.192;15.670;2023-08-01T08:53:33;3.75;;;3.05;;
21941;SDS011;11135;54.192;15.670;2023-08-01T08:56:40;4.07;;;3.35;;
21941;SDS011;11135;54.192;15.670;2023-08-01T08:59:45;5.53;;;3.40;;
21941;SDS011;11135;54.192;15.670;2023-08-01T09:02:56;4.97;;;3.13;;
21941;SDS011;11135;54.192;15.670;2023-08-01T09:06:04;4.82;;;2.90;;
21941;SDS011;11135;54.192;15.670;2023-08-01T09:09:15;4.13;;;2.65;;
21941;SDS011;11135;54.192;15.670;2023-08-01T09:12:20;4.25;;;2.90;;
21941;SDS011;11135;54.192;15.670;2023-08-01T09:19:02;4.10;;;2.70;;
21941;SDS011;11135;54.192;15.670;2023-08-01T09:22:11;4.07;;;2.60;;
21941;SDS011;11135;54.192;15.670;2023-08-01T09:25:30;3.90;;;2.65;;
21941;SDS011;11135;54.192;15.670;2023-08-01T09:32:14;3.08;;;2.08;;
21941;SDS011;11135;54.192;15.670;2023-08-01T09:35:22;3.33;;;2.30;;
21941;SDS011;11135;54.192;15.670;2023-08-01T09:38:28;3.45;;;2.15;;
21941;SDS011;11135;54.192;15.670;2023-08-01T09:41:43;3.22;;;2.15;;
21941;SDS011;11135;54.192;15.670;2023-08-01T09:44:50;3.97;;;2.47;;
21941;SDS011;11135;54.192;15.670;2023-08-01T09:47:55;3.25;;;2.17;;
21941;SDS011;11135;54.192;15.670;2023-08-01T09:51:07;5.45;;;2.92;;
21941;SDS011;11135;54.192;15.670;2023-08-01T09:54:16;5.85;;;2.38;;
21941;SDS011;11135;54.192;15.670;2023-08-01T09:57:27;2.55;;;2.30;;
21941;SDS011;11135;54.192;15.670;2023-08-01T10:00:34;3.78;;;2.67;;
21941;SDS011;11135;54.192;15.670;2023-08-01T10:03:44;3.40;;;2.47;;
21941;SDS011;11135;54.192;15.670;2023-08-01T10:06:52;4.22;;;2.97;;
21941;SDS011;11135;54.192;15.670;2023-08-01T10:10:04;3.70;;;2.53;;
21941;SDS011;11135;54.192;15.670;2023-08-01T10:13:16;3.75;;;2.92;;
21941;SDS011;11135;54.192;15.670;2023-08-01T10:16:22;4.13;;;3.30;;
21941;SDS011;11135;54.192;15.670;2023-08-01T10:19:29;4.93;;;3.50;;
21941;SDS011;11135;54.192;15.670;2023-08-01T10:22:36;4.50;;;3.15;;
21941;SDS011;11135;54.192;15.670;2023-08-01T10:25:43;4.57;;;3.30;;
21941;SDS011;11135;54.192;15.670;2023-08-01T10:28:53;4.10;;;3.55;;
21941;SDS011;11135;54.192;15.670;2023-08-01T10:32:01;4.80;;;2.85;;
21941;SDS011;11135;54.192;15.670;2023-08-01T10:35:07;3.53;;;2.92;;
21941;SDS011;11135;54.192;15.670;2023-08-01T10:38:13;4.25;;;3.20;;
21941;SDS011;11135;54.192;15.670;2023-08-01T10:41:19;5.45;;;2.85;;
21941;SDS011;11135;54.192;15.670;2023-08-01T10:44:28;4.57;;;2.95;;
21941;SDS011;11135;54.192;15.670;2023-08-01T10:47:35;4.57;;;3.28;;
21941;SDS011;11135;54.192;15.670;2023-08-01T10:50:42;4.40;;;2.72;;
21941;SDS011;11135;54.192;15.670;2023-08-01T10:53:48;6.15;;;2.90;;
21941;SDS011;11135;54.192;15.670;2023-08-01T10:56:56;4.25;;;2.78;;
21941;SDS011;11135;54.192;15.670;2023-08-01T11:00:11;3.63;;;2.70;;
21941;SDS011;11135;54.192;15.670;2023-08-01T11:03:22;4.00;;;2.78;;
21941;SDS011;11135;54.192;15.670;2023-08-01T11:06:44;3.75;;;2.78;;
21941;SDS011;11135;54.192;15.670;2023-08-01T11:13:13;3.80;;;2.88;;
21941;SDS011;11135;54.192;15.670;2023-08-01T11:16:22;3.92;;;2.70;;
21941;SDS011;11135;54.192;15.670;2023-08-01T11:19:28;4.28;;;3.10;;
21941;SDS011;11135;54.192;15.670;2023-08-01T11:22:35;5.28;;;2.78;;
21941;SDS011;11135;54.192;15.670;2023-08-01T11:25:46;4.25;;;3.00;;
21941;SDS011;11135;54.192;15.670;2023-08-01T11:29:02;4.25;;;3.00;;
21941;SDS011;11135;54.192;15.670;2023-08-01T11:32:16;5.45;;;3.28;;
21941;SDS011;11135;54.192;15.670;2023-08-01T11:38:32;4.78;;;2.85;;
21941;SDS011;11135;54.192;15.670;2023-08-01T11:41:39;4.30;;;2.88;;
21941;SDS011;11135;54.192;15.670;2023-08-01T11:44:45;4.35;;;3.15;;
21941;SDS011;11135;54.192;15.670;2023-08-01T11:47:55;3.72;;;3.28;;
21941;SDS011;11135;54.192;15.670;2023-08-01T11:51:01;3.42;;;2.90;;
21941;SDS011;11135;54.192;15.670;2023-08-01T11:54:07;3.97;;;3.05;;
21941;SDS011;11135;54.192;15.670;2023-08-01T11:57:14;5.13;;;2.85;;
21941;SDS011;11135;54.192;15.670;2023-08-01T12:00:21;4.53;;;3.28;;
21941;SDS011;11135;54.192;15.670;2023-08-01T12:03:41;3.97;;;3.13;;
21941;SDS011;11135;54.192;15.670;2023-08-01T12:06:49;4.00;;;3.13;;
21941;SDS011;11135;54.192;15.670;2023-08-01T12:09:56;6.80;;;3.20;;
21941;SDS011;11135;54.192;15.670;2023-08-01T12:13:03;5.57;;;2.80;;
21941;SDS011;11135;54.192;15.670;2023-08-01T12:16:08;3.90;;;3.00;;
21941;SDS011;11135;54.192;15.670;2023-08-01T12:19:22;4.47;;;2.90;;
21941;SDS011;11135;54.192;15.670;2023-08-01T12:22:30;4.50;;;2.63;;
21941;SDS011;11135;54.192;15.670;2023-08-01T12:25:36;4.47;;;2.70;;
21941;SDS011;11135;54.192;15.670;2023-08-01T12:28:46;4.93;;;3.63;;
21941;SDS011;11135;54.192;15.670;2023-08-01T12:36:21;8.73;;;3.38;;
21941;SDS011;11135;54.192;15.670;2023-08-01T12:39:28;7.28;;;3.17;;
21941;SDS011;11135;54.192;15.670;2023-08-01T12:42:36;4.63;;;2.28;;
21941;SDS011;11135;54.192;15.670;2023-08-01T12:45:44;4.72;;;2.05;;
21941;SDS011;11135;54.192;15.670;2023-08-01T12:49:00;4.25;;;1.80;;
21941;SDS011;11135;54.192;15.670;2023-08-01T12:52:12;5.32;;;2.17;;
21941;SDS011;11135;54.192;15.670;2023-08-01T12:55:28;5.13;;;2.58;;
21941;SDS011;11135;54.192;15.670;2023-08-01T12:58:33;6.35;;;2.58;;
21941;SDS011;11135;54.192;15.670;2023-08-01T13:01:39;5.05;;;2.30;;
21941;SDS011;11135;54.192;15.670;2023-08-01T13:04:47;5.28;;;2.60;;
21941;SDS011;11135;54.192;15.670;2023-08-01T13:07:56;7.43;;;3.53;;
21941;SDS011;11135;54.192;15.670;2023-08-01T13:11:08;5.85;;;2.80;;
21941;SDS011;11135;54.192;15.670;2023-08-01T13:14:15;6.93;;;2.78;;
21941;SDS011;11135;54.192;15.670;2023-08-01T13:17:23;6.22;;;2.80;;
21941;SDS011;11135;54.192;15.670;2023-08-01T13:20:29;3.80;;;2.50;;
21941;SDS011;11135;54.192;15.670;2023-08-01T13:23:40;5.95;;;2.97;;
21941;SDS011;11135;54.192;15.670;2023-08-01T13:26:45;4.70;;;3.17;;
21941;SDS011;11135;54.192;15.670;2023-08-01T13:29:51;4.32;;;2.58;;
21941;SDS011;11135;54.192;15.670;2023-08-01T13:32:56;4.65;;;2.22;;
21941;SDS011;11135;54.192;15.670;2023-08-01T13:36:02;4.15;;;2.60;;
21941;SDS011;11135;54.192;15.670;2023-08-01T13:39:15;3.65;;;2.58;;
21941;SDS011;11135;54.192;15.670;2023-08-01T13:42:24;5.05;;;2.53;;
21941;SDS011;11135;54.192;15.670;2023-08-01T13:45:31;4.18;;;2.60;;
21941;SDS011;11135;54.192;15.670;2023-08-01T13:48:38;4.57;;;2.97;;
21941;SDS011;11135;54.192;15.670;2023-08-01T13:51:45;5.65;;;2.90;;
21941;SDS011;11135;54.192;15.670;2023-08-01T13:54:58;5.20;;;3.08;;
21941;SDS011;11135;54.192;15.670;2023-08-01T13:58:05;6.32;;;3.20;;
21941;SDS011;11135;54.192;15.670;2023-08-01T14:01:13;6.25;;;3.80;;
21941;SDS011;11135;54.192;15.670;2023-08-01T14:04:21;5.13;;;3.47;;
21941;SDS011;11135;54.192;15.670;2023-08-01T14:07:28;5.18;;;3.10;;
21941;SDS011;11135;54.192;15.670;2023-08-01T14:10:38;5.90;;;3.55;;
21941;SDS011;11135;54.192;15.670;2023-08-01T14:13:43;4.13;;;3.08;;
21941;SDS011;11135;54.192;15.670;2023-08-01T14:16:49;6.40;;;3.28;;
21941;SDS011;11135;54.192;15.670;2023-08-01T14:19:54;4.43;;;3.08;;
21941;SDS011;11135;54.192;15.670;2023-08-01T14:23:00;4.03;;;3.05;;
21941;SDS011;11135;54.192;15.670;2023-08-01T14:26:08;4.93;;;2.65;;
21941;SDS011;11135;54.192;15.670;2023-08-01T14:29:14;4.05;;;2.55;;
21941;SDS011;11135;54.192;15.670;2023-08-01T14:32:20;4.40;;;3.05;;
21941;SDS011;11135;54.192;15.670;2023-08-01T14:35:26;6.88;;;3.35;;
21941;SDS011;11135;54.192;15.670;2023-08-01T14:38:34;4.50;;;2.97;;
21941;SDS011;11135;54.192;15.670;2023-08-01T14:41:42;6.82;;;3.15;;
21941;SDS011;11135;54.192;15.670;2023-08-01T14:45:06;5.95;;;2.90;;
21941;SDS011;11135;54.192;15.670;2023-08-01T14:48:11;15.23;;;3.95;;
21941;SDS011;11135;54.192;15.670;2023-08-01T14:51:17;9.05;;;3.88;;
21941;SDS011;11135;54.192;15.670;2023-08-01T14:54:22;11.60;;;4.38;;
21941;SDS011;11135;54.192;15.670;2023-08-01T14:57:33;6.32;;;3.60;;
21941;SDS011;11135;54.192;15.670;2023-08-01T15:00:40;7.10;;;3.92;;
21941;SDS011;11135;54.192;15.670;2023-08-01T15:03:46;8.63;;;3.80;;
21941;SDS011;11135;54.192;15.670;2023-08-01T15:06:52;5.53;;;3.63;;
21941;SDS011;11135;54.192;15.670;2023-08-01T15:09:59;6.35;;;3.40;;
21941;SDS011;11135;54.192;15.670;2023-08-01T15:13:07;4.22;;;2.88;;
21941;SDS011;11135;54.192;15.670;2023-08-01T15:16:13;5.20;;;3.42;;
21941;SDS011;11135;54.192;15.670;2023-08-01T15:19:19;5.07;;;3.15;;
21941;SDS011;11135;54.192;15.670;2023-08-01T15:22:24;4.53;;;3.08;;
21941;SDS011;11135;54.192;15.670;2023-08-01T15:25:30;6.07;;;3.60;;
21941;SDS011;11135;54.192;15.670;2023-08-01T15:28:41;3.70;;;2.60;;
21941;SDS011;11135;54.192;15.670;2023-08-01T15:31:49;4.25;;;3.13;;
21941;SDS011;11135;54.192;15.670;2023-08-01T15:34:54;4.53;;;2.83;;
21941;SDS011;11135;54.192;15.670;2023-08-01T15:38:00;4.97;;;2.53;;
21941;SDS011;11135;54.192;15.670;2023-08-01T15:41:06;7.53;;;2.97;;
21941;SDS011;11135;54.192;15.670;2023-08-01T15:44:14;4.45;;;2.78;;
21941;SDS011;11135;54.192;15.670;2023-08-01T15:47:21;4.97;;;2.60;;
21941;SDS011;11135;54.192;15.670;2023-08-01T15:50:29;4.13;;;2.95;;
21941;SDS011;11135;54.192;15.670;2023-08-01T15:53:34;5.28;;;2.83;;
21941;SDS011;11135;54.192;15.670;2023-08-01T15:56:40;4.95;;;2.67;;
21941;SDS011;11135;54.192;15.670;2023-08-01T15:59:48;3.63;;;2.60;;
21941;SDS011;11135;54.192;15.670;2023-08-01T16:02:54;5.00;;;2.45;;
21941;SDS011;11135;54.192;15.670;2023-08-01T16:06:05;3.42;;;2.10;;
21941;SDS011;11135;54.192;15.670;2023-08-01T16:09:11;4.38;;;2.65;;
21941;SDS011;11135;54.192;15.670;2023-08-01T16:12:16;3.60;;;2.53;;
21941;SDS011;11135;54.192;15.670;2023-08-01T16:15:25;4.57;;;2.83;;
21941;SDS011;11135;54.192;15.670;2023-08-01T16:18:30;4.22;;;2.65;;
21941;SDS011;11135;54.192;15.670;2023-08-01T16:21:43;3.90;;;2.65;;
21941;SDS011;11135;54.192;15.670;2023-08-01T16:24:55;7.05;;;3.15;;
21941;SDS011;11135;54.192;15.670;2023-08-01T16:28:02;3.72;;;2.03;;
21941;SDS011;11135;54.192;15.670;2023-08-01T16:31:10;3.65;;;2.60;;
21941;SDS011;11135;54.192;15.670;2023-08-01T16:34:16;2.67;;;2.20;;
21941;SDS011;11135;54.192;15.670;2023-08-01T16:37:22;3.75;;;2.00;;
21941;SDS011;11135;54.192;15.670;2023-08-01T16:40:30;4.50;;;2.42;;
21941;SDS011;11135;54.192;15.670;2023-08-01T16:43:36;4.75;;;2.25;;
21941;SDS011;11135;54.192;15.670;2023-08-01T16:46:44;4.43;;;2.35;;
21941;SDS011;11135;54.192;15.670;2023-08-01T16:49:53;3.90;;;2.75;;
21941;SDS011;11135;54.192;15.670;2023-08-01T16:52:59;4.30;;;2.78;;
21941;SDS011;11135;54.192;15.670;2023-08-01T16:56:06;3.85;;;1.98;;
21941;SDS011;11135;54.192;15.670;2023-08-01T16:59:12;4.18;;;2.40;;
21941;SDS011;11135;54.192;15.670;2023-08-01T17:02:20;4.68;;;2.33;;
21941;SDS011;11135;54.192;15.670;2023-08-01T17:05:26;3.60;;;1.98;;
21941;SDS011;11135;54.192;15.670;2023-08-01T17:08:31;3.72;;;2.40;;
21941;SDS011;11135;54.192;15.670;2023-08-01T17:11:46;2.95;;;2.10;;
21941;SDS011;11135;54.192;15.670;2023-08-01T17:14:53;3.50;;;2.20;;
21941;SDS011;11135;54.192;15.670;2023-08-01T17:18:02;3.72;;;2.15;;
21941;SDS011;11135;54.192;15.670;2023-08-01T17:21:27;3.13;;;2.08;;
21941;SDS011;11135;54.192;15.670;2023-08-01T17:24:39;3.63;;;2.20;;
21941;SDS011;11135;54.192;15.670;2023-08-01T17:27:55;3.08;;;1.88;;
21941;SDS011;11135;54.192;15.670;2023-08-01T17:31:21;3.92;;;2.25;;
21941;SDS011;11135;54.192;15.670;2023-08-01T17:34:30;5.03;;;2.40;;
21941;SDS011;11135;54.192;15.670;2023-08-01T17:37:57;3.65;;;2.53;;
21941;SDS011;11135;54.192;15.670;2023-08-01T17:44:39;2.58;;;1.30;;
21941;SDS011;11135;54.192;15.670;2023-08-01T17:47:49;4.13;;;1.85;;
21941;SDS011;11135;54.192;15.670;2023-08-01T17:50:58;2.25;;;1.25;;
21941;SDS011;11135;54.192;15.670;2023-08-01T17:54:05;2.50;;;1.30;;
21941;SDS011;11135;54.192;15.670;2023-08-01T17:57:14;3.33;;;1.45;;
21941;SDS011;11135;54.192;15.670;2023-08-01T18:00:19;2.67;;;1.50;;
21941;SDS011;11135;54.192;15.670;2023-08-01T18:03:25;2.42;;;1.40;;
21941;SDS011;11135;54.192;15.670;2023-08-01T18:06:41;2.47;;;1.50;;
21941;SDS011;11135;54.192;15.670;2023-08-01T18:09:51;3.22;;;1.00;;
21941;SDS011;11135;54.192;15.670;2023-08-01T18:13:01;5.30;;;1.40;;
21941;SDS011;11135;54.192;15.670;2023-08-01T18:16:09;3.80;;;1.52;;
21941;SDS011;11135;54.192;15.670;2023-08-01T18:19:15;2.63;;;1.33;;
21941;SDS011;11135;54.192;15.670;2023-08-01T18:22:25;4.03;;;1.88;;
21941;SDS011;11135;54.192;15.670;2023-08-01T18:25:36;3.00;;;1.42;;
21941;SDS011;11135;54.192;15.670;2023-08-01T18:28:42;2.20;;;1.30;;
21941;SDS011;11135;54.192;15.670;2023-08-01T18:31:47;3.17;;;1.20;;
21941;SDS011;11135;54.192;15.670;2023-08-01T18:34:54;2.63;;;1.40;;
21941;SDS011;11135;54.192;15.670;2023-08-01T18:38:05;5.38;;;1.60;;
21941;SDS011;11135;54.192;15.670;2023-08-01T18:41:12;2.67;;;1.33;;
21941;SDS011;11135;54.192;15.670;2023-08-01T18:44:20;5.65;;;1.27;;
21941;SDS011;11135;54.192;15.670;2023-08-01T18:47:31;2.72;;;1.45;;
21941;SDS011;11135;54.192;15.670;2023-08-01T18:50:38;2.35;;;1.30;;
21941;SDS011;11135;54.192;15.670;2023-08-01T18:53:48;3.05;;;1.02;;